sensor_id;sensor_type;location;lat;lon;timestamp;pressure;altitude;pressure_sealevel;temperature;humidity
48824;BME280;34640;53.590;10.054;2022-12-07T00:00:06;100742.34;;;3.55;100.00
48824;BME280;34640;53.590;10.054;2022-12-07T00:02:39;100737.31;;;3.57;100.00
48824;BME280;34640;53.590;10.054;2022-12-07T00:05:15;100731.00;;;3.53;100.00
48824;BME280;34640;53.590;10.054;2022-12-07T00:07:49;100722.78;;;3.57;100.00
48824;BME280;34640;53.590;10.054;2022-12-07T00:10:23;100720.59;;;3.62;100.00
48824;BME280;34640;53.590;10.054;2022-12-07T00:12:56;100716.34;;;3.62;100.00
48824;BME280;34640;53.590;10.054;2022-12-07T00:15:30;100715.56;;;3.63;100.00
48824;BME280;34640;53.590;10.054;2022-12-07T00:18:04;100706.16;;;3.64;100.00
48824;BME280;34640;53.590;10.054;2022-12-07T00:20:39;100696.91;;;3.66;100.00
48824;BME280;34640;53.590;10.054;2022-12-07T00:23:12;100693.41;;;3.65;100.00
48824;BME280;34640;53.590;10.054;2022-12-07T00:25:46;100683.50;;;3.60;100.00
48824;BME280;34640;53.590;10.054;2022-12-07T00:28:21;100687.25;;;3.63;100.00
48824;BME280;34640;53.590;10.054;2022-12-07T00:31:00;100694.31;;;3.66;100.00
48824;BME280;34640;53.590;10.054;2022-12-07T00:33:34;100690.06;;;3.66;100.00
48824;BME280;34640;53.590;10.054;2022-12-07T00:36:11;100690.50;;;3.71;100.00
48824;BME280;34640;53.590;10.054;2022-12-07T00:38:46;100685.06;;;3.68;100.00
48824;BME280;34640;53.590;10.054;2022-12-07T00:41:22;100677.31;;;3.68;100.00
48824;BME280;34640;53.590;10.054;2022-12-07T00:43:56;100677.63;;;3.71;100.00
48824;BME280;34640;53.590;10.054;2022-12-07T00:46:30;100679.94;;;3.78;100.00
48824;BME280;34640;53.590;10.054;2022-12-07T00:49:04;100672.97;;;3.77;100.00
48824;BME280;34640;53.590;10.054;2022-12-07T00:51:39;100667.19;;;3.80;100.00
48824;BME280;34640;53.590;10.054;2022-12-07T00:54:13;100658.19;;;3.75;100.00
48824;BME280;34640;53.590;10.054;2022-12-07T00:56:47;100660.88;;;3.76;100.00
48824;BME280;34640;53.590;10.054;2022-12-07T00:59:20;100653.41;;;3.79;100.00
48824;BME280;34640;53.590;10.054;2022-12-07T01:01:54;100662.94;;;3.80;100.00
48824;BME280;34640;53.590;10.054;2022-12-07T01:04:28;100653.91;;;3.85;100.00
48824;BME280;34640;53.590;10.054;2022-12-07T01:07:03;100646.59;;;3.80;100.00
48824;BME280;34640;53.590;10.054;2022-12-07T01:09:37;100648.63;;;3.84;100.00
48824;BME280;34640;53.590;10.054;2022-12-07T01:12:11;100648.63;;;3.84;100.00
48824;BME280;34640;53.590;10.054;2022-12-07T01:14:44;100638.34;;;3.84;100.00
48824;BME280;34640;53.590;10.054;2022-12-07T01:17:18;100639.09;;;3.83;100.00
48824;BME280;34640;53.590;10.054;2022-12-07T01:19:52;100631.91;;;3.79;100.00
48824;BME280;34640;53.590;10.054;2022-12-07T01:22:27;100640.66;;;3.81;100.00
48824;BME280;34640;53.590;10.054;2022-12-07T01:25:01;100636.03;;;3.77;100.00
48824;BME280;34640;53.590;10.054;2022-12-07T01:27:35;100628.81;;;3.83;100.00
48824;BME280;34640;53.590;10.054;2022-12-07T01:30:10;100636.53;;;3.83;100.00
48824;BME280;34640;53.590;10.054;2022-12-07T01:32:44;100633.19;;;3.84;100.00
48824;BME280;34640;53.590;10.054;2022-12-07T01:35:19;100634.75;;;3.72;100.00
48824;BME280;34640;53.590;10.054;2022-12-07T01:37:54;100641.03;;;3.65;100.00
48824;BME280;34640;53.590;10.054;2022-12-07T01:40:28;100639.59;;;3.68;100.00
48824;BME280;34640;53.590;10.054;2022-12-07T01:43:01;100627.91;;;3.72;100.00
48824;BME280;34640;53.590;10.054;2022-12-07T01:45:39;100628.69;;;3.71;100.00
48824;BME280;34640;53.590;10.054;2022-12-07T01:48:16;100626.38;;;3.74;100.00
48824;BME280;34640;53.590;10.054;2022-12-07T01:50:53;100626.25;;;3.73;100.00
48824;BME280;34640;53.590;10.054;2022-12-07T01:53:29;100625.22;;;3.71;100.00
48824;BME280;34640;53.590;10.054;2022-12-07T01:56:05;100623.00;;;3.65;100.00
48824;BME280;34640;53.590;10.054;2022-12-07T01:58:41;100630.09;;;3.57;100.00
48824;BME280;34640;53.590;10.054;2022-12-07T02:01:14;100632.53;;;3.56;100.00
48824;BME280;34640;53.590;10.054;2022-12-07T02:03:49;100630.22;;;3.49;100.00
48824;BME280;34640;53.590;10.054;2022-12-07T02:06:24;100629.31;;;3.48;100.00
48824;BME280;34640;53.590;10.054;2022-12-07T02:09:00;100623.75;;;3.44;100.00
48824;BME280;34640;53.590;10.054;2022-12-07T02:11:34;100622.47;;;3.38;100.00
48824;BME280;34640;53.590;10.054;2022-12-07T02:14:08;100624.66;;;3.34;100.00
48824;BME280;34640;53.590;10.054;2022-12-07T02:16:49;100620.94;;;3.30;100.00
48824;BME280;34640;53.590;10.054;2022-12-07T02:20:00;100633.16;;;3.33;100.00
48824;BME280;34640;53.590;10.054;2022-12-07T02:26:24;100625.81;;;3.27;100.00
48824;BME280;34640;53.590;10.054;2022-12-07T02:29:10;100623.13;;;3.26;100.00
48824;BME280;34640;53.590;10.054;2022-12-07T02:31:51;100615.41;;;3.26;100.00
48824;BME280;34640;53.590;10.054;2022-12-07T02:34:36;100612.81;;;3.26;100.00
48824;BME280;34640;53.590;10.054;2022-12-07T02:37:20;100612.94;;;3.27;100.00
48824;BME280;34640;53.590;10.054;2022-12-07T02:39:59;100616.66;;;3.21;100.00
48824;BME280;34640;53.590;10.054;2022-12-07T02:42:38;100623.47;;;3.20;100.00
48824;BME280;34640;53.590;10.054;2022-12-07T02:45:17;100621.16;;;3.23;100.00
48824;BME280;34640;53.590;10.054;2022-12-07T02:47:56;100616.13;;;3.25;100.00
48824;BME280;34640;53.590;10.054;2022-12-07T02:50:32;100616.94;;;3.34;100.00
48824;BME280;34640;53.590;10.054;2022-12-07T02:53:27;100617.97;;;3.36;100.00
48824;BME280;34640;53.590;10.054;2022-12-07T02:56:02;100617.44;;;3.30;100.00
48824;BME280;34640;53.590;10.054;2022-12-07T02:58:49;100632.97;;;3.21;100.00
48824;BME280;34640;53.590;10.054;2022-12-07T03:01:35;100622.31;;;3.17;100.00
48824;BME280;34640;53.590;10.054;2022-12-07T03:04:21;100617.28;;;3.08;100.00
48824;BME280;34640;53.590;10.054;2022-12-07T03:07:05;100620.06;;;3.01;100.00
48824;BME280;34640;53.590;10.054;2022-12-07T03:09:48;100616.34;;;2.97;100.00
48824;BME280;34640;53.590;10.054;2022-12-07T03:12:29;100620.72;;;2.98;100.00
48824;BME280;34640;53.590;10.054;2022-12-07T03:15:07;100623.78;;;2.94;100.00
48824;BME280;34640;53.590;10.054;2022-12-07T03:17:46;100621.84;;;2.92;100.00
48824;BME280;34640;53.590;10.054;2022-12-07T03:20:22;100627.50;;;2.88;100.00
48824;BME280;34640;53.590;10.054;2022-12-07T03:22:58;100621.19;;;2.84;100.00
48824;BME280;34640;53.590;10.054;2022-12-07T03:25:33;100615.63;;;2.80;100.00
48824;BME280;34640;53.590;10.054;2022-12-07T03:28:10;100616.13;;;2.75;100.00
48824;BME280;34640;53.590;10.054;2022-12-07T03:30:48;100621.63;;;2.70;100.00
48824;BME280;34640;53.590;10.054;2022-12-07T03:33:27;100623.56;;;2.72;100.00
48824;BME280;34640;53.590;10.054;2022-12-07T03:36:06;100617.81;;;2.75;100.00
48824;BME280;34640;53.590;10.054;2022-12-07T03:38:46;100622.94;;;2.75;100.00
48824;BME280;34640;53.590;10.054;2022-12-07T03:41:24;100624.09;;;2.68;100.00
48824;BME280;34640;53.590;10.054;2022-12-07T03:43:59;100629.84;;;2.66;100.00
48824;BME280;34640;53.590;10.054;2022-12-07T03:46:37;100624.44;;;2.63;100.00
48824;BME280;34640;53.590;10.054;2022-12-07T03:49:22;100630.34;;;2.62;100.00
48824;BME280;34640;53.590;10.054;2022-12-07T03:52:02;100625.81;;;2.59;100.00
48824;BME280;34640;53.590;10.054;2022-12-07T03:54:41;100623.75;;;2.55;100.00
48824;BME280;34640;53.590;10.054;2022-12-07T03:57:19;100622.72;;;2.53;100.00
48824;BME280;34640;53.590;10.054;2022-12-07T03:59:55;100623.47;;;2.52;100.00
48824;BME280;34640;53.590;10.054;2022-12-07T04:02:32;100628.34;;;2.49;100.00
48824;BME280;34640;53.590;10.054;2022-12-07T04:05:08;100630.66;;;2.46;100.00
48824;BME280;34640;53.590;10.054;2022-12-07T04:07:42;100637.06;;;2.41;100.00
48824;BME280;34640;53.590;10.054;2022-12-07T04:10:16;100623.00;;;2.37;100.00
48824;BME280;34640;53.590;10.054;2022-12-07T04:12:50;100632.13;;;2.34;100.00
48824;BME280;34640;53.590;10.054;2022-12-07T04:15:24;100625.75;;;2.39;100.00
48824;BME280;34640;53.590;10.054;2022-12-07T04:17:58;100627.88;;;2.34;100.00
48824;BME280;34640;53.590;10.054;2022-12-07T04:20:33;100628.91;;;2.36;100.00
48824;BME280;34640;53.590;10.054;2022-12-07T04:23:06;100622.34;;;2.30;100.00
48824;BME280;34640;53.590;10.054;2022-12-07T04:25:40;100638.50;;;2.29;100.00
48824;BME280;34640;53.590;10.054;2022-12-07T04:28:14;100625.03;;;2.31;100.00
48824;BME280;34640;53.590;10.054;2022-12-07T04:30:47;100632.34;;;2.27;100.00
48824;BME280;34640;53.590;10.054;2022-12-07T04:33:21;100628.75;;;2.25;100.00
48824;BME280;34640;53.590;10.054;2022-12-07T04:35:56;100639.78;;;2.24;100.00
48824;BME280;34640;53.590;10.054;2022-12-07T04:38:30;100637.06;;;2.22;100.00
48824;BME280;34640;53.590;10.054;2022-12-07T04:41:05;100639.22;;;2.18;100.00
48824;BME280;34640;53.590;10.054;2022-12-07T04:43:39;100651.91;;;2.16;100.00
48824;BME280;34640;53.590;10.054;2022-12-07T04:46:12;100648.03;;;2.11;100.00
48824;BME280;34640;53.590;10.054;2022-12-07T04:48:46;100639.41;;;2.10;100.00
48824;BME280;34640;53.590;10.054;2022-12-07T04:51:23;100640.81;;;2.07;100.00
48824;BME280;34640;53.590;10.054;2022-12-07T04:53:57;100641.44;;;2.04;100.00
48824;BME280;34640;53.590;10.054;2022-12-07T04:56:31;100641.56;;;2.06;100.00
48824;BME280;34640;53.590;10.054;2022-12-07T04:59:08;100638.09;;;2.05;100.00
48824;BME280;34640;53.590;10.054;2022-12-07T05:01:42;100634.22;;;2.00;100.00
48824;BME280;34640;53.590;10.054;2022-12-07T05:04:17;100635.91;;;2.00;100.00
48824;BME280;34640;53.590;10.054;2022-12-07T05:06:52;100638.31;;;1.98;100.00
48824;BME280;34640;53.590;10.054;2022-12-07T05:09:26;100635.75;;;1.98;100.00
48824;BME280;34640;53.590;10.054;2022-12-07T05:11:59;100635.91;;;2.00;100.00
48824;BME280;34640;53.590;10.054;2022-12-07T05:14:33;100637.56;;;1.99;100.00
48824;BME280;34640;53.590;10.054;2022-12-07T05:17:07;100636.94;;;2.02;100.00
48824;BME280;34640;53.590;10.054;2022-12-07T05:19:41;100636.94;;;2.02;100.00
48824;BME280;34640;53.590;10.054;2022-12-07T05:22:16;100635.91;;;2.00;100.00
48824;BME280;34640;53.590;10.054;2022-12-07T05:24:50;100635.00;;;1.99;100.00
48824;BME280;34640;53.590;10.054;2022-12-07T05:27:24;100634.72;;;1.96;100.00
48824;BME280;34640;53.590;10.054;2022-12-07T05:29:57;100636.66;;;1.99;100.00
48824;BME280;34640;53.590;10.054;2022-12-07T05:32:32;100632.28;;;1.98;100.00
48824;BME280;34640;53.590;10.054;2022-12-07T05:35:06;100628.94;;;1.99;100.00
48824;BME280;34640;53.590;10.054;2022-12-07T05:37:41;100628.69;;;1.96;100.00
48824;BME280;34640;53.590;10.054;2022-12-07T05:40:16;100634.72;;;1.96;100.00
48824;BME280;34640;53.590;10.054;2022-12-07T05:42:51;100633.06;;;1.97;100.00
48824;BME280;34640;53.590;10.054;2022-12-07T05:45:23;100636.78;;;2.00;100.00
48824;BME280;34640;53.590;10.054;2022-12-07T05:47:57;100631.03;;;2.03;100.00
48824;BME280;34640;53.590;10.054;2022-12-07T05:50:31;100632.69;;;2.02;100.00
48824;BME280;34640;53.590;10.054;2022-12-07T05:53:06;100633.47;;;2.01;100.00
48824;BME280;34640;53.590;10.054;2022-12-07T05:55:40;100630.75;;;2.00;100.00
48824;BME280;34640;53.590;10.054;2022-12-07T05:58:14;100625.50;;;1.98;100.00
48824;BME280;34640;53.590;10.054;2022-12-07T06:01:05;100630.50;;;1.97;100.00
48824;BME280;34640;53.590;10.054;2022-12-07T06:03:38;100631.69;;;1.92;100.00
48824;BME280;34640;53.590;10.054;2022-12-07T06:06:12;100627.06;;;1.88;100.00
48824;BME280;34640;53.590;10.054;2022-12-07T06:08:47;100626.50;;;1.81;100.00
48824;BME280;34640;53.590;10.054;2022-12-07T06:11:21;100623.81;;;1.80;100.00
48824;BME280;34640;53.590;10.054;2022-12-07T06:14:12;100624.44;;;1.77;100.00
48824;BME280;34640;53.590;10.054;2022-12-07T06:16:46;100625.34;;;1.78;100.00
48824;BME280;34640;53.590;10.054;2022-12-07T06:19:20;100626.22;;;1.78;100.00
48824;BME280;34640;53.590;10.054;2022-12-07T06:21:54;100621.09;;;1.78;100.00
48824;BME280;34640;53.590;10.054;2022-12-07T06:24:29;100611.88;;;1.80;100.00
48824;BME280;34640;53.590;10.054;2022-12-07T06:27:03;100615.63;;;1.84;100.00
48824;BME280;34640;53.590;10.054;2022-12-07T06:29:37;100618.59;;;1.89;100.00
48824;BME280;34640;53.590;10.054;2022-12-07T06:32:11;100616.31;;;1.92;100.00
48824;BME280;34640;53.590;10.054;2022-12-07T06:34:45;100625.03;;;1.94;100.00
48824;BME280;34640;53.590;10.054;2022-12-07T06:37:19;100624.13;;;1.93;100.00
48824;BME280;34640;53.590;10.054;2022-12-07T06:39:55;100618.88;;;1.92;100.00
48824;BME280;34640;53.590;10.054;2022-12-07T06:42:29;100618.72;;;1.90;100.00
48824;BME280;34640;53.590;10.054;2022-12-07T06:45:03;100613.88;;;1.93;100.00
48824;BME280;34640;53.590;10.054;2022-12-07T06:47:38;100615.41;;;1.91;100.00
48824;BME280;34640;53.590;10.054;2022-12-07T06:50:14;100621.13;;;1.97;100.00
48824;BME280;34640;53.590;10.054;2022-12-07T06:52:47;100620.34;;;1.98;100.00
48824;BME280;34640;53.590;10.054;2022-12-07T06:55:22;100615.63;;;2.03;100.00
48824;BME280;34640;53.590;10.054;2022-12-07T06:57:56;100615.91;;;2.06;100.00
48824;BME280;34640;53.590;10.054;2022-12-07T07:00:30;100613.72;;;2.10;100.00
48824;BME280;34640;53.590;10.054;2022-12-07T07:03:04;100618.38;;;2.14;100.00
48824;BME280;34640;53.590;10.054;2022-12-07T07:05:38;100618.50;;;2.16;100.00
48824;BME280;34640;53.590;10.054;2022-12-07T07:08:12;100622.91;;;2.17;100.00
48824;BME280;34640;53.590;10.054;2022-12-07T07:10:56;100625.41;;;2.26;100.00
48824;BME280;34640;53.590;10.054;2022-12-07T07:13:30;100622.75;;;2.34;100.00
48824;BME280;34640;53.590;10.054;2022-12-07T07:16:04;100621.22;;;2.36;100.00
48824;BME280;34640;53.590;10.054;2022-12-07T07:18:38;100621.78;;;2.42;100.00
48824;BME280;34640;53.590;10.054;2022-12-07T07:21:12;100628.34;;;2.49;100.00
48824;BME280;34640;53.590;10.054;2022-12-07T07:23:45;100623.34;;;2.51;100.00
48824;BME280;34640;53.590;10.054;2022-12-07T07:26:20;100619.25;;;2.53;100.00
48824;BME280;34640;53.590;10.054;2022-12-07T07:28:55;100620.00;;;2.52;100.00
48824;BME280;34640;53.590;10.054;2022-12-07T07:31:28;100618.47;;;2.54;100.00
48824;BME280;34640;53.590;10.054;2022-12-07T07:34:02;100622.78;;;2.63;100.00
48824;BME280;34640;53.590;10.054;2022-12-07T07:36:36;100624.31;;;2.61;100.00
48824;BME280;34640;53.590;10.054;2022-12-07T07:39:10;100626.72;;;2.60;100.00
48824;BME280;34640;53.590;10.054;2022-12-07T07:41:46;100637.16;;;2.61;100.00
48824;BME280;34640;53.590;10.054;2022-12-07T07:44:20;100638.19;;;2.63;100.00
48824;BME280;34640;53.590;10.054;2022-12-07T07:46:54;100639.09;;;2.64;100.00
48824;BME280;34640;53.590;10.054;2022-12-07T07:49:28;100641.19;;;2.68;100.00
48824;BME280;34640;53.590;10.054;2022-12-07T07:52:01;100636.03;;;2.68;100.00
48824;BME280;34640;53.590;10.054;2022-12-07T07:54:35;100650.81;;;2.70;100.00
48824;BME280;34640;53.590;10.054;2022-12-07T07:57:10;100644.91;;;2.71;100.00
48824;BME280;34640;53.590;10.054;2022-12-07T07:59:44;100644.66;;;2.79;100.00
48824;BME280;34640;53.590;10.054;2022-12-07T08:02:20;100645.72;;;2.81;100.00
48824;BME280;34640;53.590;10.054;2022-12-07T08:04:54;100646.13;;;2.85;100.00
48824;BME280;34640;53.590;10.054;2022-12-07T08:07:28;100653.22;;;2.88;100.00
48824;BME280;34640;53.590;10.054;2022-12-07T08:10:02;100644.22;;;2.93;100.00
48824;BME280;34640;53.590;10.054;2022-12-07T08:12:39;100646.03;;;2.94;100.00
48824;BME280;34640;53.590;10.054;2022-12-07T08:15:33;100648.72;;;2.95;100.00
48824;BME280;34640;53.590;10.054;2022-12-07T08:18:07;100649.13;;;3.00;100.00
48824;BME280;34640;53.590;10.054;2022-12-07T08:20:41;100641.19;;;3.07;100.00
48824;BME280;34640;53.590;10.054;2022-12-07T08:23:15;100642.88;;;3.06;100.00
48824;BME280;34640;53.590;10.054;2022-12-07T08:25:49;100639.78;;;3.11;100.00
48824;BME280;34640;53.590;10.054;2022-12-07T08:28:24;100641.09;;;3.16;100.00
48824;BME280;34640;53.590;10.054;2022-12-07T08:30:59;100638.00;;;3.20;100.00
48824;BME280;34640;53.590;10.054;2022-12-07T08:33:34;100642.03;;;3.26;100.00
48824;BME280;34640;53.590;10.054;2022-12-07T08:36:09;100646.78;;;3.32;100.00
48824;BME280;34640;53.590;10.054;2022-12-07T08:38:44;100641.38;;;3.39;100.00
48824;BME280;34640;53.590;10.054;2022-12-07T08:41:37;100644.34;;;3.44;100.00
48824;BME280;34640;53.590;10.054;2022-12-07T08:44:12;100647.06;;;3.45;100.00
48824;BME280;34640;53.590;10.054;2022-12-07T08:46:48;100653.53;;;3.50;100.00
48824;BME280;34640;53.590;10.054;2022-12-07T08:49:24;100653.91;;;3.55;100.00
48824;BME280;34640;53.590;10.054;2022-12-07T08:52:01;100646.69;;;3.61;100.00
48824;BME280;34640;53.590;10.054;2022-12-07T08:54:38;100647.59;;;3.61;100.00
48824;BME280;34640;53.590;10.054;2022-12-07T08:57:13;100656.59;;;3.66;100.00
48824;BME280;34640;53.590;10.054;2022-12-07T08:59:48;100642.69;;;3.64;100.00
48824;BME280;34640;53.590;10.054;2022-12-07T09:02:22;100652.78;;;3.72;100.00
48824;BME280;34640;53.590;10.054;2022-12-07T09:04:55;100649.00;;;3.88;100.00
48824;BME280;34640;53.590;10.054;2022-12-07T09:07:30;100657.94;;;3.92;100.00
48824;BME280;34640;53.590;10.054;2022-12-07T09:10:06;100653.94;;;3.95;100.00
48824;BME280;34640;53.590;10.054;2022-12-07T09:12:40;100660.72;;;4.05;100.00
48824;BME280;34640;53.590;10.054;2022-12-07T09:15:15;100660.97;;;4.08;100.00
48824;BME280;34640;53.590;10.054;2022-12-07T09:17:49;100660.50;;;4.12;100.00
48824;BME280;34640;53.590;10.054;2022-12-07T09:20:23;100659.44;;;4.20;100.00
48824;BME280;34640;53.590;10.054;2022-12-07T09:22:59;100663.94;;;4.23;100.00
48824;BME280;34640;53.590;10.054;2022-12-07T09:25:33;100661.38;;;4.23;100.00
48824;BME280;34640;53.590;10.054;2022-12-07T09:28:07;100659.28;;;4.29;100.00
48824;BME280;34640;53.590;10.054;2022-12-07T09:30:46;100656.06;;;4.32;100.00
48824;BME280;34640;53.590;10.054;2022-12-07T09:33:40;100663.91;;;4.33;100.00
48824;BME280;34640;53.590;10.054;2022-12-07T09:36:14;100655.28;;;4.43;100.00
48824;BME280;34640;53.590;10.054;2022-12-07T09:38:48;100658.50;;;4.40;100.00
48824;BME280;34640;53.590;10.054;2022-12-07T09:41:22;100653.31;;;4.50;100.00
48824;BME280;34640;53.590;10.054;2022-12-07T09:44:03;100657.19;;;4.55;100.00
48824;BME280;34640;53.590;10.054;2022-12-07T09:46:40;100655.09;;;4.62;100.00
48824;BME280;34640;53.590;10.054;2022-12-07T09:49:18;100661.00;;;4.71;100.00
48824;BME280;34640;53.590;10.054;2022-12-07T09:52:01;100652.47;;;4.72;100.00
48824;BME280;34640;53.590;10.054;2022-12-07T09:54:36;100654.69;;;4.77;100.00
48824;BME280;34640;53.590;10.054;2022-12-07T09:57:14;100662.41;;;4.77;100.00
48824;BME280;34640;53.590;10.054;2022-12-07T09:59:48;100658.53;;;4.72;100.00
48824;BME280;34640;53.590;10.054;2022-12-07T10:02:34;100656.84;;;4.73;100.00
48824;BME280;34640;53.590;10.054;2022-12-07T10:05:13;100650.25;;;4.86;100.00
48824;BME280;34640;53.590;10.054;2022-12-07T10:07:55;100653.06;;;4.89;100.00
48824;BME280;34640;53.590;10.054;2022-12-07T10:10:30;100652.94;;;4.88;100.00
48824;BME280;34640;53.590;10.054;2022-12-07T10:13:11;100658.34;;;4.91;100.00
48824;BME280;34640;53.590;10.054;2022-12-07T10:15:48;100645.31;;;4.89;100.00
48824;BME280;34640;53.590;10.054;2022-12-07T10:21:25;100651.06;;;4.97;100.00
48824;BME280;34640;53.590;10.054;2022-12-07T10:24:02;100647.72;;;4.98;100.00
48824;BME280;34640;53.590;10.054;2022-12-07T10:26:38;100646.31;;;5.02;100.00
48824;BME280;34640;53.590;10.054;2022-12-07T10:29:16;100648.78;;;5.00;100.00
48824;BME280;34640;53.590;10.054;2022-12-07T10:31:54;100646.66;;;5.06;100.00
48824;BME280;34640;53.590;10.054;2022-12-07T10:34:30;100648.34;;;5.06;100.00
48824;BME280;34640;53.590;10.054;2022-12-07T10:37:16;100646.31;;;5.02;100.00
48824;BME280;34640;53.590;10.054;2022-12-07T10:39:52;100647.00;;;4.89;100.00
48824;BME280;34640;53.590;10.054;2022-12-07T10:42:27;100649.56;;;4.99;100.00
48824;BME280;34640;53.590;10.054;2022-12-07T10:45:12;100655.06;;;5.04;100.00
48824;BME280;34640;53.590;10.054;2022-12-07T10:47:51;100653.75;;;5.09;100.00
48824;BME280;34640;53.590;10.054;2022-12-07T10:50:37;100653.16;;;5.01;100.00
48824;BME280;34640;53.590;10.054;2022-12-07T10:53:42;100651.50;;;4.91;100.00
48824;BME280;34640;53.590;10.054;2022-12-07T10:56:29;100650.91;;;4.84;100.00
48824;BME280;34640;53.590;10.054;2022-12-07T10:59:34;100645.69;;;4.94;100.00
48824;BME280;34640;53.590;10.054;2022-12-07T11:02:23;100640.72;;;5.07;100.00
48824;BME280;34640;53.590;10.054;2022-12-07T11:05:05;100640.97;;;5.10;100.00
48824;BME280;34640;53.590;10.054;2022-12-07T11:07:51;100640.06;;;5.10;100.00
48824;BME280;34640;53.590;10.054;2022-12-07T11:10:35;100636.94;;;5.14;100.00
48824;BME280;34640;53.590;10.054;2022-12-07T11:13:22;100633.31;;;5.22;100.00
48824;BME280;34640;53.590;10.054;2022-12-07T11:16:13;100634.25;;;5.12;100.00
48824;BME280;34640;53.590;10.054;2022-12-07T11:18:59;100630.41;;;5.07;100.00
48824;BME280;34640;53.590;10.054;2022-12-07T11:21:44;100629.38;;;5.05;100.00
48824;BME280;34640;53.590;10.054;2022-12-07T11:24:27;100624.91;;;4.93;100.00
48824;BME280;34640;53.590;10.054;2022-12-07T11:27:14;100626.81;;;5.05;100.00
48824;BME280;34640;53.590;10.054;2022-12-07T11:30:03;100622.56;;;4.96;100.00
48824;BME280;34640;53.590;10.054;2022-12-07T11:32:53;100618.59;;;4.99;100.00
48824;BME280;34640;53.590;10.054;2022-12-07T11:35:39;100621.91;;;4.98;100.00
48824;BME280;34640;53.590;10.054;2022-12-07T11:38:16;100623.59;;;4.98;100.00
48824;BME280;34640;53.590;10.054;2022-12-07T11:41:01;100621.63;;;5.05;100.00
48824;BME280;34640;53.590;10.054;2022-12-07T11:43:54;100615.34;;;5.02;100.00
48824;BME280;34640;53.590;10.054;2022-12-07T11:46:40;100615.06;;;4.99;100.00
48824;BME280;34640;53.590;10.054;2022-12-07T11:49:23;100612.88;;;5.03;100.00
48824;BME280;34640;53.590;10.054;2022-12-07T11:52:02;100609.88;;;5.09;100.00
48824;BME280;34640;53.590;10.054;2022-12-07T11:54:40;100605.38;;;5.06;100.00
48824;BME280;34640;53.590;10.054;2022-12-07T11:57:19;100603.25;;;5.12;100.00
48824;BME280;34640;53.590;10.054;2022-12-07T11:59:57;100609.56;;;5.16;100.00
48824;BME280;34640;53.590;10.054;2022-12-07T12:02:34;100601.78;;;5.04;100.00
48824;BME280;34640;53.590;10.054;2022-12-07T12:05:15;100601.34;;;5.10;100.00
48824;BME280;34640;53.590;10.054;2022-12-07T12:07:54;100599.78;;;5.12;100.00
48824;BME280;34640;53.590;10.054;2022-12-07T12:10:56;100603.03;;;5.09;100.00
48824;BME280;34640;53.590;10.054;2022-12-07T12:14:05;100598.88;;;5.11;100.00
48824;BME280;34640;53.590;10.054;2022-12-07T12:17:30;100609.75;;;5.07;100.00
48824;BME280;34640;53.590;10.054;2022-12-07T12:20:16;100609.63;;;5.06;100.00
48824;BME280;34640;53.590;10.054;2022-12-07T12:22:55;100607.59;;;5.02;100.00
48824;BME280;34640;53.590;10.054;2022-12-07T12:25:35;100598.06;;;5.01;100.00
48824;BME280;34640;53.590;10.054;2022-12-07T12:28:22;100594.97;;;4.95;100.00
48824;BME280;34640;53.590;10.054;2022-12-07T12:31:12;100594.97;;;4.95;100.00
48824;BME280;34640;53.590;10.054;2022-12-07T12:33:49;100599.75;;;5.00;100.00
48824;BME280;34640;53.590;10.054;2022-12-07T12:36:25;100599.88;;;5.02;100.00
48824;BME280;34640;53.590;10.054;2022-12-07T12:39:11;100596.63;;;5.04;100.00
48824;BME280;34640;53.590;10.054;2022-12-07T12:41:59;100598.00;;;5.11;100.00
48824;BME280;34640;53.590;10.054;2022-12-07T12:47:57;100593.06;;;5.14;100.00
48824;BME280;34640;53.590;10.054;2022-12-07T12:50:34;100588.91;;;5.16;100.00
48824;BME280;34640;53.590;10.054;2022-12-07T12:53:16;100592.94;;;5.12;100.00
48824;BME280;34640;53.590;10.054;2022-12-07T12:56:23;100598.78;;;5.10;100.00
48824;BME280;34640;53.590;10.054;2022-12-07T12:59:22;100598.53;;;5.07;100.00
48824;BME280;34640;53.590;10.054;2022-12-07T13:02:15;100599.56;;;5.09;100.00
48824;BME280;34640;53.590;10.054;2022-12-07T13:04:52;100591.09;;;5.00;100.00
48824;BME280;34640;53.590;10.054;2022-12-07T13:07:49;100598.97;;;5.01;100.00
48824;BME280;34640;53.590;10.054;2022-12-07T13:10:33;100596.09;;;4.98;100.00
48824;BME280;34640;53.590;10.054;2022-12-07T13:13:33;100596.00;;;4.97;100.00
48824;BME280;34640;53.590;10.054;2022-12-07T13:22:41;100591.22;;;5.01;100.00
48824;BME280;34640;53.590;10.054;2022-12-07T13:25:31;100591.84;;;4.99;96.03
48824;BME280;34640;53.590;10.054;2022-12-07T13:28:14;100587.84;;;5.02;94.24
48824;BME280;34640;53.590;10.054;2022-12-07T13:31:00;100594.50;;;5.10;92.94
48824;BME280;34640;53.590;10.054;2022-12-07T13:33:36;100601.03;;;5.17;90.86
48824;BME280;34640;53.590;10.054;2022-12-07T13:36:17;100598.22;;;5.14;90.53
48824;BME280;34640;53.590;10.054;2022-12-07T13:38:55;100600.13;;;5.16;89.22
48824;BME280;34640;53.590;10.054;2022-12-07T13:41:30;100605.53;;;5.19;89.08
48824;BME280;34640;53.590;10.054;2022-12-07T13:44:08;100604.28;;;5.14;87.48
48824;BME280;34640;53.590;10.054;2022-12-07T13:46:49;100608.00;;;4.96;86.02
48824;BME280;34640;53.590;10.054;2022-12-07T13:49:26;100601.69;;;4.93;86.77
48824;BME280;34640;53.590;10.054;2022-12-07T13:52:15;100592.28;;;4.93;85.71